sensor_id;sensor_type;location;lat;lon;timestamp;P1;durP1;ratioP1;P2;durP2;ratioP2
25639;SDS011;13497;48.322;16.204;2023-05-14T00:00:13;2.70;;;2.20;;
25639;SDS011;13497;48.322;16.204;2023-05-14T00:02:43;2.70;;;1.98;;
25639;SDS011;13497;48.322;16.204;2023-05-14T00:05:08;4.80;;;2.50;;
25639;SDS011;13497;48.322;16.204;2023-05-14T00:07:34;3.67;;;2.50;;
25639;SDS011;13497;48.322;16.204;2023-05-14T00:10:00;3.33;;;1.93;;
25639;SDS011;13497;48.322;16.204;2023-05-14T00:12:25;3.83;;;2.67;;
25639;SDS011;13497;48.322;16.204;2023-05-14T00:14:51;3.50;;;2.10;;
25639;SDS011;13497;48.322;16.204;2023-05-14T00:17:17;3.17;;;2.22;;
25639;SDS011;13497;48.322;16.204;2023-05-14T00:19:43;3.37;;;2.20;;
25639;SDS011;13497;48.322;16.204;2023-05-14T00:22:09;3.70;;;2.23;;
25639;SDS011;13497;48.322;16.204;2023-05-14T00:24:35;2.67;;;2.03;;
25639;SDS011;13497;48.322;16.204;2023-05-14T00:27:01;6.22;;;3.17;;
25639;SDS011;13497;48.322;16.204;2023-05-14T00:29:27;5.18;;;3.00;;
25639;SDS011;13497;48.322;16.204;2023-05-14T00:31:53;5.50;;;2.27;;
25639;SDS011;13497;48.322;16.204;2023-05-14T00:34:18;2.67;;;2.17;;
25639;SDS011;13497;48.322;16.204;2023-05-14T00:36:44;2.30;;;1.87;;
25639;SDS011;13497;48.322;16.204;2023-05-14T00:39:10;5.57;;;2.70;;
25639;SDS011;13497;48.322;16.204;2023-05-14T00:41:36;4.07;;;2.17;;
25639;SDS011;13497;48.322;16.204;2023-05-14T00:44:02;4.73;;;2.63;;
25639;SDS011;13497;48.322;16.204;2023-05-14T00:46:28;8.33;;;2.70;;
25639;SDS011;13497;48.322;16.204;2023-05-14T00:48:54;2.22;;;1.77;;
25639;SDS011;13497;48.322;16.204;2023-05-14T00:51:19;3.78;;;2.15;;
25639;SDS011;13497;48.322;16.204;2023-05-14T00:53:45;3.35;;;2.50;;
25639;SDS011;13497;48.322;16.204;2023-05-14T00:56:12;4.93;;;2.70;;
25639;SDS011;13497;48.322;16.204;2023-05-14T00:58:39;3.10;;;2.10;;
25639;SDS011;13497;48.322;16.204;2023-05-14T01:01:05;4.73;;;2.53;;
25639;SDS011;13497;48.322;16.204;2023-05-14T01:03:30;5.85;;;3.17;;
25639;SDS011;13497;48.322;16.204;2023-05-14T01:09:28;6.53;;;2.50;;
25639;SDS011;13497;48.322;16.204;2023-05-14T01:12:20;3.13;;;2.40;;
25639;SDS011;13497;48.322;16.204;2023-05-14T01:15:10;3.08;;;2.35;;
25639;SDS011;13497;48.322;16.204;2023-05-14T01:17:47;5.43;;;2.67;;
25639;SDS011;13497;48.322;16.204;2023-05-14T01:20:17;3.10;;;2.20;;
25639;SDS011;13497;48.322;16.204;2023-05-14T01:22:43;4.75;;;2.47;;
25639;SDS011;13497;48.322;16.204;2023-05-14T01:25:09;4.07;;;2.33;;
25639;SDS011;13497;48.322;16.204;2023-05-14T01:33:15;5.18;;;2.47;;
25639;SDS011;13497;48.322;16.204;2023-05-14T01:35:42;3.90;;;2.78;;
25639;SDS011;13497;48.322;16.204;2023-05-14T01:38:10;3.85;;;2.55;;
25639;SDS011;13497;48.322;16.204;2023-05-14T01:40:39;3.03;;;1.98;;
25639;SDS011;13497;48.322;16.204;2023-05-14T01:43:06;4.82;;;3.53;;
25639;SDS011;13497;48.322;16.204;2023-05-14T01:45:33;3.17;;;2.17;;
25639;SDS011;13497;48.322;16.204;2023-05-14T01:48:00;4.65;;;3.05;;
25639;SDS011;13497;48.322;16.204;2023-05-14T01:50:26;3.73;;;2.53;;
25639;SDS011;13497;48.322;16.204;2023-05-14T01:52:52;7.03;;;2.80;;
25639;SDS011;13497;48.322;16.204;2023-05-14T01:55:20;3.22;;;2.35;;
25639;SDS011;13497;48.322;16.204;2023-05-14T01:57:47;4.30;;;2.53;;
25639;SDS011;13497;48.322;16.204;2023-05-14T02:00:13;3.17;;;2.40;;
25639;SDS011;13497;48.322;16.204;2023-05-14T02:02:39;5.90;;;2.97;;
25639;SDS011;13497;48.322;16.204;2023-05-14T02:05:05;4.57;;;2.13;;
25639;SDS011;13497;48.322;16.204;2023-05-14T02:07:31;4.90;;;2.22;;
25639;SDS011;13497;48.322;16.204;2023-05-14T02:09:56;4.30;;;2.50;;
25639;SDS011;13497;48.322;16.204;2023-05-14T02:12:22;4.77;;;2.60;;
25639;SDS011;13497;48.322;16.204;2023-05-14T02:14:47;4.50;;;2.33;;
25639;SDS011;13497;48.322;16.204;2023-05-14T02:17:13;6.17;;;2.67;;
25639;SDS011;13497;48.322;16.204;2023-05-14T02:19:41;4.00;;;2.15;;
25639;SDS011;13497;48.322;16.204;2023-05-14T02:22:07;2.80;;;2.30;;
25639;SDS011;13497;48.322;16.204;2023-05-14T02:24:33;5.53;;;2.50;;
25639;SDS011;13497;48.322;16.204;2023-05-14T02:26:59;2.23;;;1.80;;
25639;SDS011;13497;48.322;16.204;2023-05-14T02:29:25;4.15;;;2.25;;
25639;SDS011;13497;48.322;16.204;2023-05-14T02:31:51;5.22;;;2.05;;
25639;SDS011;13497;48.322;16.204;2023-05-14T02:34:17;2.53;;;2.00;;
25639;SDS011;13497;48.322;16.204;2023-05-14T02:36:42;3.33;;;2.13;;
25639;SDS011;13497;48.322;16.204;2023-05-14T02:39:08;4.30;;;2.43;;
25639;SDS011;13497;48.322;16.204;2023-05-14T02:41:34;3.13;;;2.20;;
25639;SDS011;13497;48.322;16.204;2023-05-14T02:43:59;3.53;;;2.33;;
25639;SDS011;13497;48.322;16.204;2023-05-14T02:46:25;4.13;;;2.67;;
25639;SDS011;13497;48.322;16.204;2023-05-14T02:48:50;3.90;;;2.13;;
25639;SDS011;13497;48.322;16.204;2023-05-14T02:53:47;2.60;;;2.20;;
25639;SDS011;13497;48.322;16.204;2023-05-14T02:56:13;3.87;;;2.40;;
25639;SDS011;13497;48.322;16.204;2023-05-14T02:58:38;3.47;;;2.70;;
25639;SDS011;13497;48.322;16.204;2023-05-14T03:01:04;2.90;;;2.17;;
25639;SDS011;13497;48.322;16.204;2023-05-14T03:03:30;6.27;;;2.20;;
25639;SDS011;13497;48.322;16.204;2023-05-14T03:05:55;4.03;;;2.27;;
25639;SDS011;13497;48.322;16.204;2023-05-14T03:08:21;2.87;;;1.97;;
25639;SDS011;13497;48.322;16.204;2023-05-14T03:10:47;3.33;;;1.80;;
25639;SDS011;13497;48.322;16.204;2023-05-14T03:13:12;1.63;;;1.53;;
25639;SDS011;13497;48.322;16.204;2023-05-14T03:15:41;2.63;;;2.33;;
25639;SDS011;13497;48.322;16.204;2023-05-14T03:18:08;4.78;;;2.83;;
25639;SDS011;13497;48.322;16.204;2023-05-14T03:20:33;2.30;;;1.77;;
25639;SDS011;13497;48.322;16.204;2023-05-14T03:22:59;2.87;;;2.37;;
25639;SDS011;13497;48.322;16.204;2023-05-14T03:25:25;3.27;;;2.20;;
25639;SDS011;13497;48.322;16.204;2023-05-14T03:27:51;5.72;;;3.03;;
25639;SDS011;13497;48.322;16.204;2023-05-14T03:30:16;4.37;;;2.10;;
25639;SDS011;13497;48.322;16.204;2023-05-14T03:32:42;3.43;;;1.97;;
25639;SDS011;13497;48.322;16.204;2023-05-14T03:35:08;3.28;;;1.92;;
25639;SDS011;13497;48.322;16.204;2023-05-14T03:37:34;3.27;;;2.20;;
25639;SDS011;13497;48.322;16.204;2023-05-14T03:39:59;2.73;;;2.20;;
25639;SDS011;13497;48.322;16.204;2023-05-14T03:42:25;5.10;;;2.30;;
25639;SDS011;13497;48.322;16.204;2023-05-14T03:44:51;2.57;;;1.70;;
25639;SDS011;13497;48.322;16.204;2023-05-14T03:47:16;3.73;;;2.50;;
25639;SDS011;13497;48.322;16.204;2023-05-14T03:49:42;2.27;;;1.70;;
25639;SDS011;13497;48.322;16.204;2023-05-14T03:52:08;5.70;;;2.17;;
25639;SDS011;13497;48.322;16.204;2023-05-14T03:54:33;1.77;;;1.60;;
25639;SDS011;13497;48.322;16.204;2023-05-14T03:56:59;3.13;;;1.83;;
25639;SDS011;13497;48.322;16.204;2023-05-14T03:59:25;4.50;;;2.67;;
25639;SDS011;13497;48.322;16.204;2023-05-14T04:01:51;2.42;;;1.75;;
25639;SDS011;13497;48.322;16.204;2023-05-14T04:04:17;2.87;;;1.73;;
25639;SDS011;13497;48.322;16.204;2023-05-14T04:06:43;2.70;;;2.00;;
25639;SDS011;13497;48.322;16.204;2023-05-14T04:09:09;4.03;;;2.58;;
25639;SDS011;13497;48.322;16.204;2023-05-14T04:11:35;3.70;;;2.05;;
25639;SDS011;13497;48.322;16.204;2023-05-14T04:14:00;3.20;;;1.98;;
25639;SDS011;13497;48.322;16.204;2023-05-14T04:16:26;2.40;;;2.17;;
25639;SDS011;13497;48.322;16.204;2023-05-14T04:18:52;3.10;;;2.30;;
25639;SDS011;13497;48.322;16.204;2023-05-14T04:21:17;3.50;;;1.93;;
25639;SDS011;13497;48.322;16.204;2023-05-14T04:23:43;4.77;;;2.73;;
25639;SDS011;13497;48.322;16.204;2023-05-14T04:26:09;6.23;;;2.90;;
25639;SDS011;13497;48.322;16.204;2023-05-14T04:28:34;2.70;;;2.20;;
25639;SDS011;13497;48.322;16.204;2023-05-14T04:31:00;2.60;;;2.17;;
25639;SDS011;13497;48.322;16.204;2023-05-14T04:33:25;2.40;;;2.03;;
25639;SDS011;13497;48.322;16.204;2023-05-14T04:35:51;3.17;;;2.40;;
25639;SDS011;13497;48.322;16.204;2023-05-14T04:38:17;3.15;;;2.35;;
25639;SDS011;13497;48.322;16.204;2023-05-14T04:40:43;3.03;;;2.25;;
25639;SDS011;13497;48.322;16.204;2023-05-14T04:43:08;3.90;;;2.13;;
25639;SDS011;13497;48.322;16.204;2023-05-14T04:45:34;2.85;;;2.30;;
25639;SDS011;13497;48.322;16.204;2023-05-14T04:48:01;2.75;;;1.92;;
25639;SDS011;13497;48.322;16.204;2023-05-14T04:50:28;2.95;;;2.15;;
25639;SDS011;13497;48.322;16.204;2023-05-14T04:52:53;2.70;;;1.90;;
25639;SDS011;13497;48.322;16.204;2023-05-14T04:55:19;2.58;;;2.20;;
25639;SDS011;13497;48.322;16.204;2023-05-14T04:57:45;2.60;;;1.90;;
25639;SDS011;13497;48.322;16.204;2023-05-14T05:00:11;2.30;;;2.10;;
25639;SDS011;13497;48.322;16.204;2023-05-14T05:02:37;2.08;;;1.63;;
25639;SDS011;13497;48.322;16.204;2023-05-14T05:05:03;2.13;;;1.93;;
25639;SDS011;13497;48.322;16.204;2023-05-14T05:07:29;2.67;;;1.85;;
25639;SDS011;13497;48.322;16.204;2023-05-14T05:09:54;1.30;;;1.17;;
25639;SDS011;13497;48.322;16.204;2023-05-14T05:12:20;1.77;;;1.60;;
25639;SDS011;13497;48.322;16.204;2023-05-14T05:14:45;1.97;;;1.77;;
25639;SDS011;13497;48.322;16.204;2023-05-14T05:17:11;1.97;;;1.70;;
25639;SDS011;13497;48.322;16.204;2023-05-14T05:19:37;2.23;;;1.80;;
25639;SDS011;13497;48.322;16.204;2023-05-14T05:22:03;3.97;;;1.60;;
25639;SDS011;13497;48.322;16.204;2023-05-14T05:24:28;2.35;;;1.85;;
25639;SDS011;13497;48.322;16.204;2023-05-14T05:26:54;4.07;;;2.17;;
25639;SDS011;13497;48.322;16.204;2023-05-14T05:29:21;4.25;;;2.40;;
25639;SDS011;13497;48.322;16.204;2023-05-14T05:31:47;2.08;;;1.50;;
25639;SDS011;13497;48.322;16.204;2023-05-14T05:34:13;1.73;;;1.60;;
25639;SDS011;13497;48.322;16.204;2023-05-14T05:36:38;3.63;;;1.70;;
25639;SDS011;13497;48.322;16.204;2023-05-14T05:39:04;3.37;;;1.87;;
25639;SDS011;13497;48.322;16.204;2023-05-14T05:41:30;3.77;;;1.77;;
25639;SDS011;13497;48.322;16.204;2023-05-14T05:43:55;2.97;;;1.73;;
25639;SDS011;13497;48.322;16.204;2023-05-14T05:46:21;1.77;;;1.37;;
25639;SDS011;13497;48.322;16.204;2023-05-14T05:48:46;2.37;;;1.57;;
25639;SDS011;13497;48.322;16.204;2023-05-14T05:51:12;1.60;;;1.50;;
25639;SDS011;13497;48.322;16.204;2023-05-14T05:53:38;4.30;;;1.57;;
25639;SDS011;13497;48.322;16.204;2023-05-14T05:56:03;1.40;;;1.30;;
25639;SDS011;13497;48.322;16.204;2023-05-14T05:58:30;1.70;;;1.38;;
25639;SDS011;13497;48.322;16.204;2023-05-14T06:00:56;1.87;;;1.30;;
25639;SDS011;13497;48.322;16.204;2023-05-14T06:03:22;2.60;;;1.92;;
25639;SDS011;13497;48.322;16.204;2023-05-14T06:05:47;4.10;;;1.90;;
25639;SDS011;13497;48.322;16.204;2023-05-14T06:08:13;1.97;;;1.30;;
25639;SDS011;13497;48.322;16.204;2023-05-14T06:10:40;2.53;;;1.75;;
25639;SDS011;13497;48.322;16.204;2023-05-14T06:13:06;1.08;;;0.98;;
25639;SDS011;13497;48.322;16.204;2023-05-14T06:15:32;3.93;;;1.60;;
25639;SDS011;13497;48.322;16.204;2023-05-14T06:17:58;3.33;;;1.67;;
25639;SDS011;13497;48.322;16.204;2023-05-14T06:20:23;3.30;;;1.53;;
25639;SDS011;13497;48.322;16.204;2023-05-14T06:22:49;1.73;;;1.63;;
25639;SDS011;13497;48.322;16.204;2023-05-14T06:25:14;1.80;;;1.20;;
25639;SDS011;13497;48.322;16.204;2023-05-14T06:27:40;2.47;;;1.10;;
25639;SDS011;13497;48.322;16.204;2023-05-14T06:30:07;1.52;;;1.42;;
25639;SDS011;13497;48.322;16.204;2023-05-14T06:32:35;1.75;;;1.33;;
25639;SDS011;13497;48.322;16.204;2023-05-14T06:35:00;3.67;;;1.20;;
25639;SDS011;13497;48.322;16.204;2023-05-14T06:37:26;1.80;;;1.43;;
25639;SDS011;13497;48.322;16.204;2023-05-14T06:39:52;1.87;;;1.37;;
25639;SDS011;13497;48.322;16.204;2023-05-14T06:42:17;3.07;;;1.50;;
25639;SDS011;13497;48.322;16.204;2023-05-14T06:44:43;2.73;;;1.67;;
25639;SDS011;13497;48.322;16.204;2023-05-14T06:47:09;1.70;;;1.30;;
25639;SDS011;13497;48.322;16.204;2023-05-14T06:49:35;2.23;;;1.50;;
25639;SDS011;13497;48.322;16.204;2023-05-14T06:52:01;2.85;;;1.58;;
25639;SDS011;13497;48.322;16.204;2023-05-14T06:54:27;3.15;;;1.50;;
25639;SDS011;13497;48.322;16.204;2023-05-14T06:56:53;1.85;;;1.42;;
25639;SDS011;13497;48.322;16.204;2023-05-14T06:59:19;2.43;;;1.27;;
25639;SDS011;13497;48.322;16.204;2023-05-14T07:01:45;1.93;;;1.10;;
25639;SDS011;13497;48.322;16.204;2023-05-14T07:04:10;1.53;;;1.03;;
25639;SDS011;13497;48.322;16.204;2023-05-14T07:06:36;3.57;;;1.37;;
25639;SDS011;13497;48.322;16.204;2023-05-14T07:09:02;2.58;;;1.30;;
25639;SDS011;13497;48.322;16.204;2023-05-14T07:11:28;2.20;;;1.50;;
25639;SDS011;13497;48.322;16.204;2023-05-14T07:13:54;1.63;;;1.27;;
25639;SDS011;13497;48.322;16.204;2023-05-14T07:16:19;2.13;;;1.17;;
25639;SDS011;13497;48.322;16.204;2023-05-14T07:18:45;1.57;;;1.13;;
25639;SDS011;13497;48.322;16.204;2023-05-14T07:21:11;3.90;;;1.07;;
25639;SDS011;13497;48.322;16.204;2023-05-14T07:23:36;1.83;;;1.37;;
25639;SDS011;13497;48.322;16.204;2023-05-14T07:26:03;1.47;;;0.97;;
25639;SDS011;13497;48.322;16.204;2023-05-14T07:28:30;2.08;;;1.45;;
25639;SDS011;13497;48.322;16.204;2023-05-14T07:30:56;2.05;;;1.30;;
25639;SDS011;13497;48.322;16.204;2023-05-14T07:33:22;1.33;;;1.17;;
25639;SDS011;13497;48.322;16.204;2023-05-14T07:35:48;1.73;;;1.27;;
25639;SDS011;13497;48.322;16.204;2023-05-14T07:38:14;2.88;;;1.67;;
25639;SDS011;13497;48.322;16.204;2023-05-14T07:40:40;1.42;;;1.33;;
25639;SDS011;13497;48.322;16.204;2023-05-14T07:43:07;1.52;;;1.42;;
25639;SDS011;13497;48.322;16.204;2023-05-14T07:45:33;1.23;;;0.97;;
25639;SDS011;13497;48.322;16.204;2023-05-14T07:48:00;1.58;;;1.23;;
25639;SDS011;13497;48.322;16.204;2023-05-14T07:50:25;1.40;;;1.23;;
25639;SDS011;13497;48.322;16.204;2023-05-14T07:52:51;1.33;;;1.20;;
25639;SDS011;13497;48.322;16.204;2023-05-14T07:55:16;1.47;;;1.27;;
25639;SDS011;13497;48.322;16.204;2023-05-14T07:57:42;2.63;;;1.43;;
25639;SDS011;13497;48.322;16.204;2023-05-14T08:00:08;1.13;;;0.87;;
25639;SDS011;13497;48.322;16.204;2023-05-14T08:02:34;2.03;;;1.33;;
25639;SDS011;13497;48.322;16.204;2023-05-14T08:04:59;0.77;;;0.77;;
25639;SDS011;13497;48.322;16.204;2023-05-14T08:07:25;6.07;;;1.37;;
25639;SDS011;13497;48.322;16.204;2023-05-14T08:09:53;1.30;;;0.98;;
25639;SDS011;13497;48.322;16.204;2023-05-14T08:12:18;11.40;;;1.77;;
25639;SDS011;13497;48.322;16.204;2023-05-14T08:14:44;1.80;;;1.17;;
25639;SDS011;13497;48.322;16.204;2023-05-14T08:17:10;4.23;;;1.67;;
25639;SDS011;13497;48.322;16.204;2023-05-14T08:19:36;9.13;;;3.60;;
25639;SDS011;13497;48.322;16.204;2023-05-14T08:22:01;1.37;;;1.13;;
25639;SDS011;13497;48.322;16.204;2023-05-14T08:24:27;1.10;;;1.00;;
25639;SDS011;13497;48.322;16.204;2023-05-14T08:26:53;0.90;;;0.80;;
25639;SDS011;13497;48.322;16.204;2023-05-14T08:29:20;1.52;;;0.93;;
25639;SDS011;13497;48.322;16.204;2023-05-14T08:31:45;1.53;;;1.00;;
25639;SDS011;13497;48.322;16.204;2023-05-14T08:34:12;1.15;;;0.95;;
25639;SDS011;13497;48.322;16.204;2023-05-14T08:36:37;1.33;;;1.23;;
25639;SDS011;13497;48.322;16.204;2023-05-14T08:39:03;3.93;;;1.23;;
25639;SDS011;13497;48.322;16.204;2023-05-14T08:41:31;1.48;;;1.27;;
25639;SDS011;13497;48.322;16.204;2023-05-14T08:46:29;2.10;;;1.15;;
25639;SDS011;13497;48.322;16.204;2023-05-14T08:48:59;1.02;;;0.90;;
25639;SDS011;13497;48.322;16.204;2023-05-14T08:51:48;1.25;;;0.82;;
25639;SDS011;13497;48.322;16.204;2023-05-14T08:54:15;2.25;;;1.50;;
25639;SDS011;13497;48.322;16.204;2023-05-14T08:56:45;1.77;;;1.00;;
25639;SDS011;13497;48.322;16.204;2023-05-14T08:59:11;1.25;;;0.93;;
25639;SDS011;13497;48.322;16.204;2023-05-14T09:01:37;2.05;;;1.15;;
25639;SDS011;13497;48.322;16.204;2023-05-14T09:04:04;1.13;;;1.00;;
25639;SDS011;13497;48.322;16.204;2023-05-14T09:06:34;1.50;;;0.70;;
25639;SDS011;13497;48.322;16.204;2023-05-14T09:09:03;0.85;;;0.80;;
25639;SDS011;13497;48.322;16.204;2023-05-14T09:11:29;1.10;;;1.00;;
25639;SDS011;13497;48.322;16.204;2023-05-14T09:13:56;0.98;;;0.75;;
25639;SDS011;13497;48.322;16.204;2023-05-14T09:16:26;0.70;;;0.70;;
25639;SDS011;13497;48.322;16.204;2023-05-14T09:18:53;0.80;;;0.80;;
25639;SDS011;13497;48.322;16.204;2023-05-14T09:21:20;1.77;;;1.45;;
25639;SDS011;13497;48.322;16.204;2023-05-14T09:23:47;1.05;;;0.90;;
25639;SDS011;13497;48.322;16.204;2023-05-14T09:26:20;1.00;;;0.82;;
25639;SDS011;13497;48.322;16.204;2023-05-14T09:28:48;1.13;;;0.85;;
25639;SDS011;13497;48.322;16.204;2023-05-14T09:31:17;1.73;;;0.80;;
25639;SDS011;13497;48.322;16.204;2023-05-14T09:33:42;0.87;;;0.80;;
25639;SDS011;13497;48.322;16.204;2023-05-14T09:36:17;1.08;;;0.93;;
25639;SDS011;13497;48.322;16.204;2023-05-14T09:38:45;1.05;;;0.95;;
25639;SDS011;13497;48.322;16.204;2023-05-14T09:41:10;0.90;;;0.80;;
25639;SDS011;13497;48.322;16.204;2023-05-14T09:43:36;0.97;;;0.80;;
25639;SDS011;13497;48.322;16.204;2023-05-14T09:46:02;1.00;;;0.90;;
25639;SDS011;13497;48.322;16.204;2023-05-14T09:48:27;2.47;;;0.90;;
25639;SDS011;13497;48.322;16.204;2023-05-14T09:50:53;0.90;;;0.60;;
25639;SDS011;13497;48.322;16.204;2023-05-14T09:53:19;0.70;;;0.70;;
25639;SDS011;13497;48.322;16.204;2023-05-14T09:55:45;0.63;;;0.63;;
25639;SDS011;13497;48.322;16.204;2023-05-14T09:58:11;0.70;;;0.70;;
25639;SDS011;13497;48.322;16.204;2023-05-14T10:00:42;0.80;;;0.80;;
25639;SDS011;13497;48.322;16.204;2023-05-14T10:03:09;1.50;;;0.90;;
25639;SDS011;13497;48.322;16.204;2023-05-14T10:05:39;2.30;;;1.15;;
25639;SDS011;13497;48.322;16.204;2023-05-14T10:08:29;2.47;;;1.60;;
25639;SDS011;13497;48.322;16.204;2023-05-14T10:11:05;1.67;;;1.17;;
25639;SDS011;13497;48.322;16.204;2023-05-14T10:13:38;0.75;;;0.73;;
25639;SDS011;13497;48.322;16.204;2023-05-14T10:16:30;1.98;;;0.95;;
25639;SDS011;13497;48.322;16.204;2023-05-14T10:19:08;1.05;;;0.90;;
25639;SDS011;13497;48.322;16.204;2023-05-14T10:21:35;1.30;;;1.00;;
25639;SDS011;13497;48.322;16.204;2023-05-14T10:24:02;1.15;;;1.05;;
25639;SDS011;13497;48.322;16.204;2023-05-14T10:26:29;1.05;;;0.70;;
25639;SDS011;13497;48.322;16.204;2023-05-14T10:28:56;0.85;;;0.70;;
25639;SDS011;13497;48.322;16.204;2023-05-14T10:31:23;1.55;;;0.90;;
25639;SDS011;13497;48.322;16.204;2023-05-14T10:34:07;1.00;;;0.90;;
25639;SDS011;13497;48.322;16.204;2023-05-14T10:37:47;0.90;;;0.88;;
25639;SDS011;13497;48.322;16.204;2023-05-14T10:39:57;1.30;;;0.95;;
25639;SDS011;13497;48.322;16.204;2023-05-14T10:42:26;0.70;;;0.70;;
25639;SDS011;13497;48.322;16.204;2023-05-14T10:45:02;0.85;;;0.80;;
25639;SDS011;13497;48.322;16.204;2023-05-14T10:47:31;1.15;;;0.95;;
25639;SDS011;13497;48.322;16.204;2023-05-14T10:49:58;1.20;;;0.98;;
25639;SDS011;13497;48.322;16.204;2023-05-14T10:52:25;1.23;;;1.13;;
25639;SDS011;13497;48.322;16.204;2023-05-14T10:54:52;1.03;;;0.93;;
25639;SDS011;13497;48.322;16.204;2023-05-14T10:57:29;1.05;;;0.95;;
25639;SDS011;13497;48.322;16.204;2023-05-14T10:59:56;1.00;;;0.90;;
25639;SDS011;13497;48.322;16.204;2023-05-14T11:02:29;0.95;;;0.80;;
25639;SDS011;13497;48.322;16.204;2023-05-14T11:05:04;1.15;;;0.90;;
25639;SDS011;13497;48.322;16.204;2023-05-14T11:07:45;1.80;;;0.95;;
25639;SDS011;13497;48.322;16.204;2023-05-14T11:10:16;1.00;;;0.88;;
25639;SDS011;13497;48.322;16.204;2023-05-14T11:12:46;1.00;;;0.95;;
25639;SDS011;13497;48.322;16.204;2023-05-14T11:15:14;1.50;;;1.40;;
25639;SDS011;13497;48.322;16.204;2023-05-14T11:17:41;1.20;;;0.98;;
25639;SDS011;13497;48.322;16.204;2023-05-14T11:20:08;1.83;;;0.80;;
25639;SDS011;13497;48.322;16.204;2023-05-14T11:22:35;1.70;;;1.23;;
25639;SDS011;13497;48.322;16.204;2023-05-14T11:25:02;1.35;;;1.10;;
25639;SDS011;13497;48.322;16.204;2023-05-14T11:27:28;1.33;;;1.13;;
25639;SDS011;13497;48.322;16.204;2023-05-14T11:29:54;1.17;;;1.00;;
25639;SDS011;13497;48.322;16.204;2023-05-14T11:32:21;1.70;;;1.25;;
25639;SDS011;13497;48.322;16.204;2023-05-14T11:34:47;1.85;;;1.17;;
25639;SDS011;13497;48.322;16.204;2023-05-14T11:37:13;1.30;;;1.17;;
25639;SDS011;13497;48.322;16.204;2023-05-14T11:39:50;2.88;;;1.10;;
25639;SDS011;13497;48.322;16.204;2023-05-14T11:42:19;1.25;;;0.93;;
25639;SDS011;13497;48.322;16.204;2023-05-14T11:47:13;1.30;;;1.15;;
25639;SDS011;13497;48.322;16.204;2023-05-14T11:52:06;1.55;;;1.27;;
25639;SDS011;13497;48.322;16.204;2023-05-14T11:54:35;1.15;;;1.05;;
25639;SDS011;13497;48.322;16.204;2023-05-14T11:59:32;1.70;;;1.13;;
25639;SDS011;13497;48.322;16.204;2023-05-14T12:02:00;1.27;;;1.00;;
25639;SDS011;13497;48.322;16.204;2023-05-14T12:04:27;1.60;;;1.40;;
25639;SDS011;13497;48.322;16.204;2023-05-14T12:09:21;2.10;;;1.45;;
25639;SDS011;13497;48.322;16.204;2023-05-14T12:11:47;2.85;;;1.48;;
25639;SDS011;13497;48.322;16.204;2023-05-14T12:14:15;2.15;;;1.38;;
25639;SDS011;13497;48.322;16.204;2023-05-14T12:16:42;1.52;;;1.00;;
25639;SDS011;13497;48.322;16.204;2023-05-14T12:19:09;2.33;;;1.67;;
25639;SDS011;13497;48.322;16.204;2023-05-14T12:21:35;1.67;;;1.08;;
25639;SDS011;13497;48.322;16.204;2023-05-14T12:24:01;2.03;;;1.48;;
25639;SDS011;13497;48.322;16.204;2023-05-14T12:26:30;1.40;;;1.17;;
25639;SDS011;13497;48.322;16.204;2023-05-14T12:29:00;2.85;;;1.35;;
25639;SDS011;13497;48.322;16.204;2023-05-14T12:31:31;1.55;;;1.27;;
25639;SDS011;13497;48.322;16.204;2023-05-14T12:33:57;2.97;;;1.15;;
25639;SDS011;13497;48.322;16.204;2023-05-14T12:36:24;1.90;;;1.52;;
25639;SDS011;13497;48.322;16.204;2023-05-14T12:39:01;2.25;;;1.30;;
25639;SDS011;13497;48.322;16.204;2023-05-14T12:41:28;1.17;;;1.08;;
25639;SDS011;13497;48.322;16.204;2023-05-14T12:43:55;2.10;;;1.52;;
25639;SDS011;13497;48.322;16.204;2023-05-14T12:46:20;1.73;;;1.30;;
25639;SDS011;13497;48.322;16.204;2023-05-14T12:48:46;1.92;;;1.10;;
25639;SDS011;13497;48.322;16.204;2023-05-14T12:51:12;3.23;;;1.50;;
25639;SDS011;13497;48.322;16.204;2023-05-14T12:53:38;1.30;;;1.20;;
25639;SDS011;13497;48.322;16.204;2023-05-14T12:56:04;1.50;;;1.17;;
25639;SDS011;13497;48.322;16.204;2023-05-14T12:58:31;1.90;;;1.17;;
25639;SDS011;13497;48.322;16.204;2023-05-14T13:00:57;2.83;;;1.52;;
25639;SDS011;13497;48.322;16.204;2023-05-14T13:03:23;1.42;;;1.33;;
25639;SDS011;13497;48.322;16.204;2023-05-14T13:08:16;2.13;;;1.00;;
25639;SDS011;13497;48.322;16.204;2023-05-14T13:10:44;2.35;;;1.13;;
25639;SDS011;13497;48.322;16.204;2023-05-14T13:13:10;1.55;;;1.15;;
25639;SDS011;13497;48.322;16.204;2023-05-14T13:15:36;1.42;;;1.33;;
25639;SDS011;13497;48.322;16.204;2023-05-14T13:18:04;1.73;;;1.27;;
25639;SDS011;13497;48.322;16.204;2023-05-14T13:20:29;1.30;;;1.20;;
25639;SDS011;13497;48.322;16.204;2023-05-14T13:22:55;2.53;;;1.30;;
25639;SDS011;13497;48.322;16.204;2023-05-14T13:25:21;0.80;;;0.80;;
25639;SDS011;13497;48.322;16.204;2023-05-14T13:27:47;2.13;;;1.13;;
25639;SDS011;13497;48.322;16.204;2023-05-14T13:30:17;2.25;;;1.38;;
25639;SDS011;13497;48.322;16.204;2023-05-14T13:32:43;1.83;;;1.23;;
25639;SDS011;13497;48.322;16.204;2023-05-14T13:35:09;1.25;;;1.15;;
25639;SDS011;13497;48.322;16.204;2023-05-14T13:37:36;1.80;;;1.30;;
25639;SDS011;13497;48.322;16.204;2023-05-14T13:40:02;2.00;;;1.20;;
25639;SDS011;13497;48.322;16.204;2023-05-14T13:42:34;2.40;;;1.58;;
25639;SDS011;13497;48.322;16.204;2023-05-14T13:45:00;1.25;;;1.00;;
25639;SDS011;13497;48.322;16.204;2023-05-14T13:47:26;1.53;;;1.30;;
25639;SDS011;13497;48.322;16.204;2023-05-14T13:49:52;2.88;;;1.50;;
25639;SDS011;13497;48.322;16.204;2023-05-14T13:52:18;1.50;;;1.40;;
25639;SDS011;13497;48.322;16.204;2023-05-14T13:54:44;2.27;;;1.30;;
25639;SDS011;13497;48.322;16.204;2023-05-14T13:57:10;2.08;;;1.25;;
25639;SDS011;13497;48.322;16.204;2023-05-14T13:59:35;1.33;;;1.10;;
25639;SDS011;13497;48.322;16.204;2023-05-14T14:02:01;1.33;;;1.17;;
25639;SDS011;13497;48.322;16.204;2023-05-14T14:04:27;2.53;;;1.27;;
25639;SDS011;13497;48.322;16.204;2023-05-14T14:06:53;1.07;;;0.83;;
25639;SDS011;13497;48.322;16.204;2023-05-14T14:09:19;1.23;;;1.02;;
25639;SDS011;13497;48.322;16.204;2023-05-14T14:11:46;2.28;;;1.30;;
25639;SDS011;13497;48.322;16.204;2023-05-14T14:14:12;1.17;;;1.08;;
25639;SDS011;13497;48.322;16.204;2023-05-14T14:16:37;2.10;;;1.23;;
25639;SDS011;13497;48.322;16.204;2023-05-14T14:19:03;1.23;;;0.90;;
25639;SDS011;13497;48.322;16.204;2023-05-14T14:21:29;1.37;;;1.13;;
25639;SDS011;13497;48.322;16.204;2023-05-14T14:26:21;2.03;;;1.27;;
25639;SDS011;13497;48.322;16.204;2023-05-14T14:28:47;2.60;;;1.23;;
25639;SDS011;13497;48.322;16.204;2023-05-14T14:31:13;2.00;;;1.30;;
25639;SDS011;13497;48.322;16.204;2023-05-14T14:33:41;1.40;;;1.30;;
25639;SDS011;13497;48.322;16.204;2023-05-14T14:36:07;4.45;;;1.25;;
25639;SDS011;13497;48.322;16.204;2023-05-14T14:38:33;1.17;;;1.00;;
25639;SDS011;13497;48.322;16.204;2023-05-14T14:40:59;1.23;;;0.90;;
25639;SDS011;13497;48.322;16.204;2023-05-14T14:43:27;1.13;;;0.80;;
25639;SDS011;13497;48.322;16.204;2023-05-14T14:45:53;1.42;;;1.15;;
25639;SDS011;13497;48.322;16.204;2023-05-14T14:48:32;1.75;;;1.50;;
25639;SDS011;13497;48.322;16.204;2023-05-14T14:51:01;1.48;;;1.15;;
25639;SDS011;13497;48.322;16.204;2023-05-14T14:53:28;2.20;;;1.10;;
25639;SDS011;13497;48.322;16.204;2023-05-14T14:55:55;1.77;;;1.20;;
25639;SDS011;13497;48.322;16.204;2023-05-14T14:58:22;6.35;;;1.48;;
25639;SDS011;13497;48.322;16.204;2023-05-14T15:00:55;0.90;;;0.90;;